createdAt,value
2018-07-11T00:04:55.275Z,99390.67
2018-07-11T00:11:01.196Z,99396.65
2018-07-11T00:17:10.985Z,99392.53
2018-07-11T00:23:17.123Z,99392.23
2018-07-11T00:29:27.919Z,99390.73
2018-07-11T00:35:33.647Z,99395.91
2018-07-11T00:41:39.570Z,99396.83
2018-07-11T00:47:45.614Z,99406.33
2018-07-11T00:53:53.111Z,99405.62
2018-07-11T00:59:59.238Z,99406.03
2018-07-11T01:06:05.066Z,99403.16
2018-07-11T01:12:10.983Z,99398.28
2018-07-11T01:18:17.957Z,99402.52
2018-07-11T01:24:23.806Z,99395.57
2018-07-11T01:30:29.577Z,99394.27
2018-07-11T01:36:35.462Z,99399.48
2018-07-11T01:42:41.362Z,99404.70
2018-07-11T01:48:47.497Z,99396.77
2018-07-11T01:54:53.792Z,99393.45
2018-07-11T02:00:59.542Z,99397.09
2018-07-11T02:07:05.837Z,99387.59
2018-07-11T02:13:11.589Z,99381.60
2018-07-11T02:19:21.965Z,99370.51
2018-07-11T02:25:28.513Z,99358.56
2018-07-11T02:31:34.332Z,99367.50
2018-07-11T02:37:40.485Z,99369.39
2018-07-11T02:43:46.290Z,99356.33
2018-07-11T02:49:54.398Z,99359.30
2018-07-11T02:56:00.177Z,99367.02
2018-07-11T03:02:05.913Z,99366.31
2018-07-11T03:08:12.271Z,99366.77
2018-07-11T03:14:18.467Z,99368.86
2018-07-11T03:20:26.106Z,99375.85
2018-07-11T03:26:31.888Z,99369.19
2018-07-11T03:32:37.667Z,99379.10
2018-07-11T03:38:43.696Z,99377.08
2018-07-11T03:44:49.806Z,99368.69
2018-07-11T03:50:55.636Z,99386.91
2018-07-11T03:57:01.466Z,99371.39
2018-07-11T04:03:07.185Z,99373.79
2018-07-11T04:09:13.085Z,99378.41
2018-07-11T04:15:18.874Z,99374.51
2018-07-11T04:21:26.614Z,99381.28
2018-07-11T04:27:32.347Z,99375.89
2018-07-11T04:33:38.388Z,99368.69
2018-07-11T04:39:44.232Z,99370.05
2018-07-11T04:45:50.612Z,99371.73
2018-07-11T04:51:57.092Z,99374.45
2018-07-11T04:58:02.840Z,99378.54
2018-07-11T05:04:08.673Z,99386.32
2018-07-11T05:10:14.350Z,99382.52
2018-07-11T05:16:20.588Z,99383.09
2018-07-11T05:22:26.644Z,99390.33
2018-07-11T05:28:32.311Z,99394.95
2018-07-11T05:34:38.397Z,99388.75
2018-07-11T05:40:44.137Z,99393.42
2018-07-11T05:46:54.612Z,99400.20
2018-07-11T05:53:00.377Z,99410.48
2018-07-11T05:59:06.349Z,99417.23
2018-07-11T06:05:12.103Z,99408.13
2018-07-11T06:11:25.600Z,99416.09
2018-07-11T06:17:31.765Z,99419.25
2018-07-11T06:23:37.592Z,99418.50
2018-07-11T06:29:43.305Z,99420.79
2018-07-11T06:35:49.482Z,99421.37
2018-07-11T06:41:55.394Z,99419.55
2018-07-11T06:48:01.650Z,99426.20
2018-07-11T06:54:07.888Z,99433.27
2018-07-11T07:00:13.643Z,99434.16
2018-07-11T07:06:19.601Z,99435.23
2018-07-11T07:12:25.777Z,99439.91
2018-07-11T07:18:31.576Z,99426.34
2018-07-11T07:24:37.277Z,99431.19
2018-07-11T07:30:42.939Z,99426.05
2018-07-11T07:36:49.251Z,99425.73
2018-07-11T07:42:55.618Z,99412.97
2018-07-11T07:49:01.344Z,99411.42
2018-07-11T07:55:07.164Z,99407.98
2018-07-11T08:01:12.880Z,99393.80
2018-07-11T08:07:18.651Z,99394.73
2018-07-11T08:13:24.769Z,99397.97
2018-07-11T08:19:30.633Z,99389.33
2018-07-11T08:25:47.611Z,99389.89
2018-07-11T08:34:15.867Z,99392.74
2018-07-11T08:41:36.638Z,99390.58
2018-07-11T08:48:06.016Z,99393.77
2018-07-11T08:56:54.595Z,99384.21
2018-07-11T09:04:17.686Z,99383.00
2018-07-11T09:11:51.569Z,99378.75
2018-07-11T09:22:22.476Z,99375.36
2018-07-11T09:28:28.207Z,99383.84
2018-07-11T09:34:34.200Z,99386.52
2018-07-11T09:40:39.972Z,99379.05
2018-07-11T09:46:45.816Z,99369.30
2018-07-11T09:52:52.252Z,99364.98
2018-07-11T09:58:58.165Z,99365.81
2018-07-11T10:05:04.218Z,99356.23
2018-07-11T10:11:09.829Z,99357.88
2018-07-11T10:17:15.565Z,99346.97
2018-07-11T10:23:23.695Z,99345.87
2018-07-11T10:29:30.372Z,99344.22
2018-07-11T10:35:36.093Z,99346.28
2018-07-11T10:41:41.710Z,99352.59
2018-07-11T10:47:47.448Z,99352.92
2018-07-11T10:53:53.419Z,99351.86
2018-07-11T10:59:59.295Z,99357.45
2018-07-11T11:06:05.041Z,99356.49
2018-07-11T11:12:10.829Z,99356.88
2018-07-11T11:18:16.650Z,99353.91
2018-07-11T11:24:23.154Z,99357.31
2018-07-11T11:30:28.838Z,99361.92
2018-07-11T11:36:34.624Z,99360.29
2018-07-11T11:42:40.508Z,99361.41
2018-07-11T11:48:46.272Z,99355.52
2018-07-11T11:54:53.115Z,99348.27
2018-07-11T12:00:59.476Z,99341.33
2018-07-11T12:07:05.591Z,99339.85
2018-07-11T12:13:11.275Z,99344.72
2018-07-11T12:19:17.046Z,99341.58
2018-07-11T12:25:23.677Z,99337.61
2018-07-11T12:31:29.629Z,99346.63
2018-07-11T12:37:35.419Z,99337.80
2018-07-11T12:43:41.326Z,99332.63
2018-07-11T12:49:47.189Z,99333.83
2018-07-11T12:55:53.488Z,99332.13
2018-07-11T13:01:59.802Z,99320.43
2018-07-11T13:08:05.626Z,99326.23
2018-07-11T13:14:11.328Z,99323.33
2018-07-11T13:20:17.354Z,99324.33
2018-07-11T13:26:24.033Z,99316.84
2018-07-11T13:32:31.176Z,99321.20
2018-07-11T13:38:37.803Z,99315.80
2018-07-11T13:44:43.513Z,99313.58
2018-07-11T13:50:50.273Z,99313.38
2018-07-11T13:56:56.511Z,99307.94
2018-07-11T14:03:03.145Z,99302.64
2018-07-11T14:09:08.868Z,99294.20
2018-07-11T14:15:14.832Z,99291.98
2018-07-11T14:21:21.108Z,99299.02
2018-07-11T14:27:28.820Z,99298.53
2018-07-11T14:33:35.293Z,99298.63
2018-07-11T14:39:41.478Z,99300.58
2018-07-11T14:45:47.565Z,99297.69
2018-07-11T14:51:54.414Z,99305.08
2018-07-11T14:58:00.370Z,99311.88
2018-07-11T15:04:06.680Z,99293.09
2018-07-11T15:10:12.636Z,99295.03
2018-07-11T15:16:18.699Z,99290.24
2018-07-11T15:22:25.761Z,99282.59
2018-07-11T15:28:31.848Z,99292.55
2018-07-11T15:34:38.133Z,99289.29
2018-07-11T15:40:44.445Z,99294.66
2018-07-11T15:46:51.158Z,99298.66
2018-07-11T15:52:58.264Z,99298.19
2018-07-11T15:59:10.192Z,99299.67
2018-07-11T16:05:20.660Z,99295.55
2018-07-11T16:11:27.169Z,99293.02
2018-07-11T16:17:33.025Z,99292.42
2018-07-11T16:23:38.918Z,99285.69
2018-07-11T16:29:45.225Z,99288.06
2018-07-11T16:35:52.513Z,99288.84
2018-07-11T16:41:58.772Z,99289.46
2018-07-11T16:48:04.607Z,99279.55
2018-07-11T16:54:10.418Z,99283.66
2018-07-11T17:00:17.625Z,99290.06
2018-07-11T17:06:23.742Z,99309.38
2018-07-11T17:12:29.786Z,99310.71
2018-07-11T17:18:48.509Z,99312.59
2018-07-11T17:24:55.195Z,99328.17
2018-07-11T17:31:01.564Z,99331.67
2018-07-11T17:37:08.667Z,99326.06
2018-07-11T17:43:17.980Z,99331.18
2018-07-11T17:49:34.204Z,99352.36
2018-07-11T17:55:59.024Z,99358.86
2018-07-11T18:02:14.636Z,99346.69
2018-07-11T18:08:21.681Z,99355.89
2018-07-11T18:15:34.538Z,99339.09
2018-07-11T18:27:38.326Z,99335.03
2018-07-11T18:35:01.316Z,99334.14
2018-07-11T18:41:10.619Z,99330.86
2018-07-11T18:48:33.445Z,99354.13
2018-07-11T18:57:04.406Z,99349.94
2018-07-11T19:03:24.413Z,99351.72
2018-07-11T19:09:53.385Z,99358.97
2018-07-11T19:16:16.747Z,99350.91
2018-07-11T19:22:40.188Z,99349.97
2018-07-11T19:28:59.774Z,99368.95
2018-07-11T19:36:25.404Z,99374.94
2018-07-11T19:42:51.599Z,99378.25
2018-07-11T19:49:10.677Z,99388.66
2018-07-11T19:57:28.460Z,99390.05
2018-07-11T20:03:34.340Z,99392.70
2018-07-11T20:09:40.938Z,99387.97
2018-07-11T20:15:46.899Z,99381.43
2018-07-11T20:21:53.740Z,99374.52
2018-07-11T20:27:59.984Z,99379.67
2018-07-11T20:34:06.377Z,99380.91
2018-07-11T20:40:11.997Z,99391.70
2018-07-11T20:46:17.882Z,99394.03
2018-07-11T20:52:23.820Z,99387.39
2018-07-11T20:58:46.573Z,99397.56
2018-07-11T21:09:21.487Z,99408.73
2018-07-11T21:18:53.244Z,99401.28
2018-07-11T21:24:58.955Z,99403.00
2018-07-11T21:31:05.274Z,99408.44
2018-07-11T21:37:11.648Z,99410.39
2018-07-11T21:43:17.083Z,99427.56
2018-07-11T21:49:23.277Z,99430.06
2018-07-11T21:55:29.016Z,99422.55
2018-07-11T22:01:34.677Z,99423.35
2018-07-11T22:07:40.786Z,99422.77
2018-07-11T22:13:46.481Z,99420.20
2018-07-11T22:19:50.821Z,99424.78
2018-07-11T22:25:55.527Z,99430.86
2018-07-11T22:31:59.033Z,99429.52
2018-07-11T22:38:02.605Z,99437.09
2018-07-11T22:44:06.159Z,99438.50
2018-07-11T22:50:09.696Z,99440.09
2018-07-11T22:56:13.241Z,99444.09
2018-07-11T23:02:16.774Z,99440.72
2018-07-11T23:08:20.733Z,99439.57
2018-07-11T23:14:24.657Z,99443.09
2018-07-11T23:20:28.295Z,99435.80
2018-07-11T23:26:31.831Z,99430.11
2018-07-11T23:32:35.399Z,99440.18
2018-07-11T23:38:39.276Z,99438.36
2018-07-11T23:44:42.772Z,99440.78
2018-07-11T23:50:46.664Z,99434.39
2018-07-11T23:56:51.804Z,99424.95
